Time;durP1;ratioP1;P1;durP2;ratioP2;P2;SDS_P1;SDS_P2;PMS_P1;PMS_P2;Temp;Humidity;BMP_temperature;BMP_pressure;BME280_temperature;BME280_humidity;BME280_pressure;Samples;Min_cycle;Max_cycle;Signal;HPM_P1;HPM_P2
2022/01/16 00:00:19;;;;;;;60.58;28.42;;;;;;;-0.86;83.51;100074.02;1730833;82;21028;-39
2022/01/16 00:05:30;;;;;;;54.48;27.65;;;;;;;-0.82;83.47;100071.02;1730936;82;20976;-38
2022/01/16 00:07:57;;;;;;;60.92;27.98;;;;;;;-0.79;83.06;100071.88;1730821;83;21009;-38
2022/01/16 00:10:25;;;;;;;61.63;28.42;;;;;;;-0.86;83.01;100076.59;1730932;82;21597;-38
2022/01/16 00:12:52;;;;;;;59.98;27.20;;;;;;;-0.94;83.02;100068.41;1730867;82;21004;-38
2022/01/16 00:15:21;;;;;;;66.40;28.35;;;;;;;-0.94;83.04;100060.66;1731008;82;21532;-37
2022/01/16 00:20:22;;;;;;;60.65;28.57;;;;;;;-0.97;83.24;100062.78;1730955;82;21054;-37
2022/01/16 00:22:49;;;;;;;66.50;29.63;;;;;;;-0.95;83.27;100070.11;1730772;82;21458;-38
2022/01/16 00:25:16;;;;;;;56.77;28.40;;;;;;;-0.92;83.20;100068.83;1731108;82;21004;-39
2022/01/16 00:27:43;;;;;;;66.87;29.97;;;;;;;-0.94;83.23;100043.44;1731051;82;21003;-38
2022/01/16 00:30:10;;;;;;;59.85;28.07;;;;;;;-0.91;83.20;100025.80;1730895;82;21730;-37
2022/01/16 00:32:36;;;;;;;54.45;27.80;;;;;;;-0.92;83.10;100027.52;1730863;82;21539;-38
2022/01/16 00:35:03;;;;;;;57.85;27.35;;;;;;;-0.97;83.30;100025.34;1730778;82;21046;-39
2022/01/16 00:37:29;;;;;;;61.55;26.50;;;;;;;-0.90;83.12;100040.44;1730892;82;21038;-39
2022/01/16 00:39:55;;;;;;;53.80;25.95;;;;;;;-0.92;83.16;100037.85;1730794;82;20992;-38
2022/01/16 00:42:20;;;;;;;60.67;26.17;;;;;;;-0.91;83.18;100053.79;1730769;82;21075;-37
2022/01/16 00:44:46;;;;;;;58.92;26.35;;;;;;;-0.89;83.05;100023.67;1730748;82;21035;-38
2022/01/16 00:47:12;;;;;;;58.40;25.08;;;;;;;-0.93;83.28;100018.48;1730556;82;21000;-38
2022/01/16 00:49:39;;;;;;;55.33;24.98;;;;;;;-0.95;83.46;100024.92;1726380;83;20980;-39
2022/01/16 00:52:09;;;;;;;57.13;26.40;;;;;;;-0.91;83.47;100037.41;1726209;83;20980;-39
2022/01/16 00:54:37;;;;;;;54.77;24.47;;;;;;;-0.90;83.43;100041.30;1726164;83;21081;-39
2022/01/16 00:57:04;;;;;;;52.55;23.77;;;;;;;-0.89;83.66;100075.31;1726198;83;21020;-39
2022/01/16 00:59:30;;;;;;;60.63;26.45;;;;;;;-0.92;83.82;100079.16;1726174;82;21051;-38
2022/01/16 01:01:56;;;;;;;57.05;26.87;;;;;;;-0.91;83.95;100079.61;1726120;83;21015;-40
2022/01/16 01:04:21;;;;;;;67.40;27.87;;;;;;;-0.88;83.93;100089.93;1726076;83;21008;-41
2022/01/16 01:06:49;;;;;;;58.80;25.82;;;;;;;-0.87;83.92;100064.55;1726120;82;21039;-38
2022/01/16 01:09:15;;;;;;;;;;;;;;;-0.84;83.87;100052.92;1728609;83;20988;-38
2022/01/16 01:11:43;;;;;;;61.13;26.40;;;;;;;-0.83;83.83;100046.06;1726114;83;20116;-38
2022/01/16 01:14:16;;;;;;;56.37;28.17;;;;;;;-0.78;83.78;100063.30;1725952;83;21043;-38
2022/01/16 01:16:50;;;;;;;54.53;26.77;;;;;;;-0.78;83.72;100049.53;1725236;83;21030;-38
2022/01/16 01:19:04;;;;;;;;;;;;;;;-0.74;83.54;100035.75;1726339;83;21473;-40
2022/01/16 01:21:31;;;;;;;50.03;24.02;;;;;;;-0.82;83.29;100055.11;1726113;83;20119;-39
2022/01/16 01:23:58;;;;;;;53.60;23.00;;;;;;;-0.79;83.28;100056.39;1725642;83;21027;-38
2022/01/16 01:26:28;;;;;;;54.65;22.60;;;;;;;-0.81;83.27;100037.45;1726183;83;20995;-38
2022/01/16 01:28:51;;;;;;;44.63;20.02;;;;;;;-0.75;83.30;100033.16;1725554;83;20992;-39
2022/01/16 01:31:17;;;;;;;44.65;19.15;;;;;;;-0.80;83.13;100023.69;1726063;83;20973;-38
2022/01/16 01:33:43;;;;;;;38.40;18.70;;;;;;;-0.80;83.13;100023.69;1726062;83;21035;-39
2022/01/16 01:36:08;;;;;;;41.25;18.10;;;;;;;-0.82;82.93;100022.83;1726066;83;21039;-38
2022/01/16 01:38:34;;;;;;;38.78;17.48;;;;;;;-0.74;82.99;100046.52;1726067;83;21003;-38
2022/01/16 01:41:00;;;;;;;42.78;16.27;;;;;;;-0.83;83.00;100002.16;1726058;83;20988;-38
2022/01/16 01:51:36;;;;;;;36.28;13.62;;;;;;;-0.86;82.86;99889.82;1726135;83;21024;-38
2022/01/16 01:54:02;;;;;;;33.85;14.45;;;;;;;-0.86;82.88;99888.09;1725922;83;20988;-38
2022/01/16 01:56:29;;;;;;;29.18;13.10;;;;;;;-0.94;82.80;99874.77;1726248;83;21039;-38
2022/01/16 01:58:58;;;;;;;30.27;13.03;;;;;;;-0.92;83.30;99881.64;1726227;83;21059;-38
2022/01/16 02:01:26;;;;;;;30.20;12.90;;;;;;;-0.91;82.83;99936.31;1726145;83;21040;-38
2022/01/16 02:03:53;;;;;;;39.48;13.60;;;;;;;-1.00;83.27;99942.72;1726106;83;21031;-38
2022/01/16 02:06:22;;;;;;;42.67;14.90;;;;;;;-0.98;83.51;99944.46;1726012;83;21008;-38
2022/01/16 02:08:53;;;;;;;33.02;13.90;;;;;;;-0.91;83.49;99966.00;1726066;83;21043;-38
2022/01/16 02:11:24;;;;;;;34.85;14.07;;;;;;;-0.92;83.40;99950.50;1707555;83;20992;-39
2022/01/16 02:14:03;;;;;;;34.43;14.35;;;;;;;-0.89;83.42;99956.53;1725954;83;21541;-39
2022/01/16 02:28:14;;;;;;;37.20;13.72;;;;;;;-0.81;83.39;99947.06;1726045;83;21078;-37
2022/01/16 02:31:40;;;;;;;42.00;15.32;;;;;;;-0.73;83.45;99944.92;1725303;83;20996;-37
2022/01/16 02:35:58;;;;;;;33.53;12.28;;;;;;;-0.66;83.43;99938.46;1726131;83;21080;-39
2022/01/16 02:38:24;;;;;;;35.00;12.58;;;;;;;-0.65;83.38;99944.52;1726065;83;21533;-39
2022/01/16 02:41:02;;;;;;;36.75;11.97;;;;;;;-0.59;83.25;99960.86;1716180;81;21070;-38
2022/01/16 02:43:31;;;;;;;34.27;11.53;;;;;;;-0.54;83.23;99954.41;1657677;86;21071;-38
2022/01/16 02:48:42;;;;;;;31.85;10.78;;;;;;;-0.47;83.05;99954.85;1689042;84;21440;-38
2022/01/16 02:51:08;;;;;;;38.33;13.10;;;;;;;-0.48;82.82;99956.99;1689223;84;20998;-38
2022/01/16 02:53:34;;;;;;;31.00;11.15;;;;;;;-0.42;82.98;99959.59;1689055;84;21000;-40
2022/01/16 02:56:00;;;;;;;36.17;11.43;;;;;;;-0.39;82.78;99947.95;1689083;84;21050;-38
2022/01/16 02:58:26;;;;;;;35.52;11.18;;;;;;;-0.33;82.72;99937.18;1689124;84;21043;-38
2022/01/16 03:00:52;;;;;;;36.80;11.85;;;;;;;-0.30;82.64;99938.04;1688865;85;21019;-38
2022/01/16 03:03:18;;;;;;;33.80;11.33;;;;;;;-0.28;82.58;99941.92;1688796;85;20995;-38
2022/01/16 03:05:44;;;;;;;34.08;10.65;;;;;;;-0.24;82.42;99938.46;1688991;84;20971;-38
2022/01/16 03:08:09;;;;;;;31.82;10.43;;;;;;;-0.23;82.41;99932.00;1689208;84;21536;-38
2022/01/16 03:13:04;;;;;;;30.20;9.00;;;;;;;-0.17;82.37;99925.11;1688599;84;20960;-38
2022/01/16 03:15:30;;;;;;;23.73;9.53;;;;;;;-0.12;82.23;99933.72;1688943;84;21003;-39
2022/01/16 03:23:21;;;;;;;19.92;8.10;;;;;;;-0.08;81.97;99937.58;1689045;85;21003;-37
2022/01/16 03:25:49;;;;;;;26.55;8.20;;;;;;;-0.16;81.72;99928.98;1689065;84;21043;-37
2022/01/16 03:28:15;;;;;;;31.93;9.65;;;;;;;-0.16;81.72;99916.06;1689199;84;21003;-38
2022/01/16 03:30:42;;;;;;;35.78;9.88;;;;;;;-0.22;81.74;99905.72;1689111;85;20976;-38
2022/01/16 03:33:07;;;;;;;36.55;10.32;;;;;;;-0.17;82.01;99900.11;1688910;84;21016;-38
2022/01/16 03:35:34;;;;;;;26.27;8.85;;;;;;;-0.14;82.01;99899.27;1689058;84;21502;-37
2022/01/16 03:38:00;;;;;;;29.82;9.45;;;;;;;-0.10;82.02;99899.23;1688901;84;21516;-37
2022/01/16 03:40:26;;;;;;;32.50;9.55;;;;;;;-0.09;82.02;99896.20;1689212;85;21006;-37
2022/01/16 03:42:53;;;;;;;27.10;9.65;;;;;;;-0.04;82.07;99890.19;1719799;83;21038;-38
2022/01/16 03:45:19;;;;;;;29.77;9.63;;;;;;;-0.09;82.05;99880.70;1732763;83;21003;-38
2022/01/16 03:47:45;;;;;;;21.07;9.90;;;;;;;-0.09;81.62;99884.58;1732932;83;21497;-39
2022/01/16 03:50:11;;;;;;;28.12;9.40;;;;;;;-0.03;81.60;99881.55;1732947;83;20996;-38
2022/01/16 03:52:37;;;;;;;29.55;10.85;;;;;;;-0.01;81.44;99866.89;1732823;83;20999;-38
2022/01/16 03:55:07;;;;;;;26.12;10.43;;;;;;;0.04;81.50;99864.30;1732915;83;21004;-38
2022/01/16 03:57:33;;;;;;;31.15;9.25;;;;;;;0.03;81.23;99853.96;1732939;82;20984;-38
2022/01/16 03:59:59;;;;;;;31.27;9.63;;;;;;;0.06;81.14;99865.59;1733009;83;21031;-38
2022/01/16 04:02:24;;;;;;;27.77;9.78;;;;;;;0.08;81.11;99852.23;1733180;82;21513;-38
2022/01/16 04:04:50;;;;;;;30.35;10.08;;;;;;;0.13;81.26;99848.75;1732573;82;20995;-38
2022/01/16 04:07:24;;;;;;;25.17;9.03;;;;;;;0.18;81.25;99851.30;1732935;82;20976;-38
2022/01/16 04:09:44;;;;;;;28.80;9.75;;;;;;;0.14;81.00;99845.28;1730806;83;20976;-38
2022/01/16 04:12:10;;;;;;;33.38;10.20;;;;;;;0.16;80.90;99850.45;1733049;82;20976;-38
2022/01/16 04:17:17;;;;;;;28.00;8.78;;;;;;;0.11;81.01;99840.55;1733035;83;21052;-38
2022/01/16 04:19:43;;;;;;;26.82;9.48;;;;;;;0.12;80.95;99835.38;1732539;82;21596;-38
2022/01/16 04:22:09;;;;;;;30.63;9.77;;;;;;;0.13;80.91;99829.80;1733246;83;20992;-38
2022/01/16 04:24:36;;;;;;;28.85;9.93;;;;;;;0.11;80.96;99826.33;1732828;83;21031;-38
2022/01/16 04:27:03;;;;;;;31.60;9.85;;;;;;;0.08;80.99;99820.75;1732889;83;21035;-38
2022/01/16 04:29:29;;;;;;;22.42;9.60;;;;;;;0.09;81.05;99817.72;1733078;83;21012;-38
2022/01/16 04:31:55;;;;;;;31.95;9.30;;;;;;;0.10;81.10;99818.16;1732980;82;21024;-39
2022/01/16 04:34:21;;;;;;;35.73;10.15;;;;;;;0.10;80.97;99815.58;1733006;82;21054;-38
2022/01/16 04:36:47;;;;;;;30.52;10.93;;;;;;;0.15;81.11;99819.01;1732750;83;20972;-38
2022/01/16 04:39:16;;;;;;;31.15;10.40;;;;;;;0.20;81.14;99818.56;1732770;83;20988;-38
2022/01/16 04:44:26;;;;;;;24.43;9.68;;;;;;;0.07;80.88;99816.88;1730685;83;20115;-39
2022/01/16 04:46:52;;;;;;;29.37;10.58;;;;;;;0.09;80.94;99808.67;1730702;83;21007;-39
2022/01/16 04:49:19;;;;;;;26.90;11.17;;;;;;;0.08;80.92;99801.36;1730817;82;21027;-40
2022/01/16 04:51:45;;;;;;;29.42;9.85;;;;;;;0.09;81.02;99800.91;1730677;83;20984;-39
2022/01/16 04:54:11;;;;;;;29.05;10.60;;;;;;;0.13;80.84;99805.23;1730602;83;21027;-40
2022/01/16 04:56:37;;;;;;;28.23;10.10;;;;;;;0.10;80.90;99800.06;1730491;83;21469;-39
2022/01/16 04:59:03;;;;;;;27.32;10.30;;;;;;;0.11;80.88;99800.06;1730543;83;21026;-39
2022/01/16 05:01:29;;;;;;;30.48;10.18;;;;;;;0.07;80.54;99791.86;1730617;83;20968;-39
2022/01/16 05:03:55;;;;;;;29.55;10.48;;;;;;;0.13;80.65;99775.48;1730614;83;20996;-37
2022/01/16 05:06:21;;;;;;;33.33;10.58;;;;;;;0.17;80.60;99779.77;1730574;82;21008;-38
2022/01/16 05:08:48;;;;;;;29.57;9.55;;;;;;;0.19;80.56;99785.78;1730611;82;20972;-38
2022/01/16 05:11:16;;;;;;;24.18;8.90;;;;;;;0.22;80.31;99775.44;1730566;82;20999;-38
2022/01/16 05:18:53;;;;;;;24.75;8.80;;;;;;;0.23;79.79;99768.53;1730688;83;20975;-37
2022/01/16 05:21:20;;;;;;;29.17;10.10;;;;;;;0.16;79.95;99762.52;1730786;83;21782;-38
2022/01/16 05:23:46;;;;;;;24.07;8.65;;;;;;;0.19;80.01;99772.86;1730615;83;21421;-39
2022/01/16 05:26:17;;;;;;;19.80;8.08;;;;;;;0.15;79.93;99761.66;1730168;83;21038;-38
2022/01/16 05:28:43;;;;;;;28.15;9.75;;;;;;;0.12;80.04;99761.67;1730487;83;21438;-38
2022/01/16 05:31:08;;;;;;;32.35;9.13;;;;;;;0.21;80.16;99758.63;1730535;82;21034;-38
2022/01/16 05:33:34;;;;;;;27.30;9.13;;;;;;;0.17;79.97;99749.58;1730570;83;21027;-39
2022/01/16 05:36:00;;;;;;;23.95;9.88;;;;;;;0.20;80.04;99747.43;1730617;82;21087;-38
2022/01/16 05:38:27;;;;;;;25.50;10.23;;;;;;;0.21;79.98;99740.52;1730569;82;20972;-38
2022/01/16 05:40:52;;;;;;;28.27;10.73;;;;;;;0.21;79.96;99741.37;1730422;83;20995;-38
2022/01/16 05:43:18;;;;;;;26.65;10.43;;;;;;;0.23;80.01;99729.28;1732006;83;21024;-39
2022/01/16 05:45:44;;;;;;;25.00;10.32;;;;;;;0.09;79.96;99729.39;1732900;83;21004;-39
2022/01/16 05:48:10;;;;;;;31.55;9.78;;;;;;;0.26;80.16;99730.56;1732529;83;20999;-39
2022/01/16 05:50:36;;;;;;;33.42;11.22;;;;;;;0.27;80.17;99721.07;1732902;83;21035;-39
2022/01/16 05:53:03;;;;;;;39.35;12.78;;;;;;;0.08;80.69;99721.19;1732884;83;21028;-39
2022/01/16 05:55:36;;;;;;;39.23;12.47;;;;;;;0.23;80.57;99708.59;1732797;83;21540;-38
2022/01/16 05:57:57;;;;;;;33.15;12.47;;;;;;;0.19;80.43;99715.95;1732940;82;21519;-41
2022/01/16 06:00:23;;;;;;;36.63;12.95;;;;;;;0.26;80.52;99717.63;1732894;83;21008;-39
2022/01/16 06:02:49;;;;;;;27.82;11.25;;;;;;;0.28;80.56;99717.19;1732589;83;21133;-39
2022/01/16 06:05:16;;;;;;;36.77;12.58;;;;;;;0.29;80.27;99718.92;1732822;83;21000;-39
2022/01/16 06:07:51;;;;;;;28.35;12.58;;;;;;;0.31;80.25;99713.30;1732959;83;21533;-39
2022/01/16 06:10:13;;;;;;;30.60;11.88;;;;;;;0.36;80.35;99714.13;1732844;82;21501;-39
2022/01/16 06:12:39;;;;;;;26.05;11.78;;;;;;;0.41;80.26;99710.64;1732857;82;21048;-39
2022/01/16 06:15:05;;;;;;;29.77;12.13;;;;;;;0.37;80.41;99703.33;1732766;82;20996;-38
2022/01/16 06:17:31;;;;;;;26.40;10.93;;;;;;;0.37;80.41;99703.33;1732997;82;21612;-39
2022/01/16 06:19:58;;;;;;;31.75;11.60;;;;;;;0.40;80.32;99702.03;1732681;83;21625;-39
2022/01/16 06:22:23;;;;;;;33.20;11.73;;;;;;;0.47;80.27;99705.41;1732596;83;21011;-39
2022/01/16 06:24:49;;;;;;;27.67;9.88;;;;;;;0.47;80.16;99701.53;1732877;82;20988;-39
2022/01/16 06:27:15;;;;;;;26.15;10.63;;;;;;;0.47;80.05;99706.25;1732594;83;21086;-38
2022/01/16 06:29:40;;;;;;;33.38;10.55;;;;;;;0.49;80.14;99704.55;1732863;83;21003;-38
2022/01/16 06:32:07;;;;;;;34.55;10.82;;;;;;;0.54;80.19;99687.67;1732624;83;21004;-38
2022/01/16 06:34:33;;;;;;;25.85;11.25;;;;;;;0.54;80.14;99680.76;1732991;83;21003;-38
2022/01/16 06:36:58;;;;;;;34.48;11.33;;;;;;;0.53;80.05;99677.77;1732802;82;21003;-38
2022/01/16 06:39:25;;;;;;;30.90;10.75;;;;;;;0.50;80.03;99672.61;1732939;82;21023;-38
2022/01/16 06:41:51;;;;;;;29.57;12.50;;;;;;;0.50;80.26;99673.05;1733118;83;21039;-39
2022/01/16 06:44:17;;;;;;;33.53;12.37;;;;;;;0.53;80.35;99675.17;1732794;83;21058;-38
2022/01/16 06:46:43;;;;;;;27.90;11.35;;;;;;;0.55;80.37;99666.11;1732848;83;20992;-39
2022/01/16 06:49:10;;;;;;;35.78;12.53;;;;;;;0.54;80.51;99665.67;1732865;83;21512;-39
2022/01/16 06:51:37;;;;;;;;;;;;;;;0.56;80.60;99666.10;1735507;82;20996;-38
2022/01/16 06:54:03;;;;;;;35.30;12.40;;;;;;;0.56;80.60;99656.16;1733113;83;20112;-38
2022/01/16 06:56:30;;;;;;;35.65;13.40;;;;;;;0.59;80.73;99652.70;1732821;83;21003;-38
2022/01/16 06:58:57;;;;;;;30.88;12.73;;;;;;;0.62;80.77;99649.66;1732836;82;21060;-39
2022/01/16 07:01:23;;;;;;;33.45;13.78;;;;;;;0.64;80.80;99649.62;1732974;83;20999;-38
2022/01/16 07:03:50;;;;;;;33.45;13.32;;;;;;;0.61;80.95;99656.98;1732922;83;21528;-38
2022/01/16 07:06:16;;;;;;;30.27;12.25;;;;;;;0.65;81.09;99657.81;1732736;83;21000;-38
2022/01/16 07:08:42;;;;;;;35.85;14.53;;;;;;;0.68;80.98;99648.30;1732673;83;21543;-38
2022/01/16 07:11:09;;;;;;;41.42;13.65;;;;;;;0.67;80.88;99650.89;1732717;83;21040;-38
2022/01/16 07:13:35;;;;;;;32.13;13.68;;;;;;;0.68;81.04;99650.03;1733178;82;21004;-38
2022/01/16 07:16:01;;;;;;;36.13;13.28;;;;;;;0.68;81.20;99652.17;1732983;83;21003;-38
2022/01/16 07:18:28;;;;;;;43.58;14.30;;;;;;;0.72;81.26;99652.56;1732843;83;20992;-39
2022/01/16 07:20:54;;;;;;;32.73;13.50;;;;;;;0.69;81.12;99642.67;1732926;83;21592;-39
2022/01/16 07:23:20;;;;;;;41.58;14.90;;;;;;;0.73;81.26;99647.81;1732983;83;21411;-38
2022/01/16 07:25:47;;;;;;;38.83;13.72;;;;;;;0.76;81.35;99646.50;1732940;82;21000;-38
2022/01/16 07:28:13;;;;;;;37.17;14.40;;;;;;;0.81;81.44;99645.59;1733141;82;21035;-39
2022/01/16 07:30:39;;;;;;;42.43;14.65;;;;;;;0.83;81.47;99639.96;1733330;83;21656;-38
2022/01/16 07:33:07;;;;;;;48.60;15.20;;;;;;;0.85;81.45;99643.39;1732964;83;21000;-38
2022/01/16 07:35:35;;;;;;;42.48;13.60;;;;;;;0.73;81.40;99637.91;1732847;83;21482;-38
2022/01/16 07:38:02;;;;;;;42.25;13.32;;;;;;;0.81;81.64;99640.42;1733020;83;20995;-38
2022/01/16 07:40:28;;;;;;;42.40;13.20;;;;;;;0.72;82.07;99636.18;1733248;82;21003;-38
2022/01/16 07:42:55;;;;;;;41.63;13.22;;;;;;;0.72;82.02;99638.77;1732838;83;20992;-38
2022/01/16 07:45:22;;;;;;;38.15;13.78;;;;;;;0.78;82.15;99635.27;1732988;82;21031;-38
2022/01/16 07:47:48;;;;;;;38.20;12.75;;;;;;;0.75;82.11;99642.19;1732988;83;21046;-39
2022/01/16 07:50:16;;;;;;;36.80;12.65;;;;;;;0.82;82.26;99648.59;1732712;83;20972;-39
2022/01/16 07:52:42;;;;;;;32.28;13.08;;;;;;;0.85;82.07;99657.19;1732973;83;21043;-38
2022/01/16 07:55:09;;;;;;;35.95;14.87;;;;;;;0.80;81.75;99653.80;1733211;83;21008;-39
2022/01/16 07:57:36;;;;;;;38.15;14.25;;;;;;;0.78;81.86;99663.73;1733132;83;21035;-38
2022/01/16 08:00:04;;;;;;;42.55;15.28;;;;;;;0.70;82.05;99662.08;1732999;83;21536;-38
2022/01/16 08:02:30;;;;;;;34.83;13.40;;;;;;;0.70;82.07;99656.90;1732868;82;21493;-39
2022/01/16 08:04:56;;;;;;;37.30;13.15;;;;;;;0.68;82.27;99652.17;1732944;82;20960;-39
2022/01/16 08:07:21;;;;;;;36.53;13.98;;;;;;;0.69;82.24;99652.61;1732927;83;21039;-38
2022/01/16 08:09:47;;;;;;;39.18;15.28;;;;;;;0.69;82.29;99648.73;1732963;83;21034;-38
2022/01/16 08:12:14;;;;;;;32.73;14.68;;;;;;;0.68;82.60;99654.77;1732965;83;21485;-39
2022/01/16 08:14:40;;;;;;;43.27;13.63;;;;;;;0.67;82.39;99646.56;1733174;82;20992;-39
2022/01/16 08:17:06;;;;;;;36.83;13.95;;;;;;;0.67;82.43;99650.45;1732880;83;21008;-39
2022/01/16 08:19:32;;;;;;;33.80;12.33;;;;;;;0.59;82.52;99652.70;1733029;82;21579;-39
2022/01/16 08:21:58;;;;;;;41.63;13.98;;;;;;;0.66;82.21;99644.02;1733035;82;21481;-39
2022/01/16 08:24:25;;;;;;;31.90;12.78;;;;;;;0.68;82.18;99648.73;1732643;83;20987;-40
2022/01/16 08:26:51;;;;;;;37.63;14.90;;;;;;;0.70;82.07;99641.81;1732839;83;20991;-39
2022/01/16 08:29:19;;;;;;;52.73;17.37;;;;;;;0.69;82.29;99629.31;1733150;83;20976;-39
2022/01/16 08:31:45;;;;;;;43.68;15.80;;;;;;;0.71;82.33;99617.63;1732997;83;21512;-39
2022/01/16 08:34:11;;;;;;;36.08;15.40;;;;;;;0.65;82.32;99626.31;1732940;82;21052;-39
2022/01/16 08:36:36;;;;;;;34.90;13.43;;;;;;;0.70;82.30;99627.13;1733031;82;21011;-38
2022/01/16 08:39:03;;;;;;;32.70;13.38;;;;;;;0.71;82.23;99621.51;1732753;83;21501;-43
2022/01/16 08:41:29;;;;;;;34.98;13.45;;;;;;;0.72;82.17;99623.23;1732835;83;20976;-38
2022/01/16 08:43:54;;;;;;;37.40;14.55;;;;;;;0.68;81.96;99619.82;1731466;82;21526;-38
2022/01/16 08:46:21;;;;;;;35.70;13.80;;;;;;;0.66;81.90;99605.19;1729604;82;21039;-38
2022/01/16 08:48:49;;;;;;;39.58;14.60;;;;;;;0.62;82.12;99599.19;1729296;83;21342;-38
2022/01/16 08:51:15;;;;;;;28.90;13.20;;;;;;;0.69;82.36;99604.73;1730525;83;21004;-39
2022/01/16 08:53:40;;;;;;;33.30;14.20;;;;;;;0.75;82.29;99596.03;1730521;83;20992;-38
2022/01/16 08:56:07;;;;;;;37.25;14.00;;;;;;;0.84;81.97;99593.34;1730491;83;21011;-39
2022/01/16 08:58:33;;;;;;;33.33;14.90;;;;;;;0.85;81.65;99583.84;1730290;83;21004;-39
2022/01/16 09:00:58;;;;;;;34.38;13.22;;;;;;;0.83;81.32;99585.14;1730508;83;21527;-39
2022/01/16 09:03:25;;;;;;;28.05;13.48;;;;;;;0.91;81.11;99575.98;1730623;83;21081;-39
2022/01/16 09:05:52;;;;;;;34.08;15.65;;;;;;;0.90;80.94;99572.55;1730580;83;21472;-39
2022/01/16 09:08:18;;;;;;;39.42;16.10;;;;;;;0.96;81.17;99562.56;1730596;83;21039;-39
2022/01/16 09:10:45;;;;;;;37.80;15.70;;;;;;;0.91;81.09;99561.33;1730342;82;21007;-39
2022/01/16 09:13:12;;;;;;;33.80;14.35;;;;;;;0.94;80.86;99560.42;1730423;83;21051;-39
2022/01/16 09:15:39;;;;;;;36.00;14.73;;;;;;;0.95;80.93;99549.20;1730568;83;21003;-38
2022/01/16 09:18:05;;;;;;;;;;;;;;;0.97;80.81;99555.22;1731317;82;21603;-38
2022/01/16 09:20:32;;;;;;;41.02;16.50;;;;;;;0.90;80.84;99553.13;1730604;82;20360;-39
2022/01/16 09:22:58;;;;;;;35.93;16.23;;;;;;;0.90;81.15;99538.05;1730726;82;21607;-38
2022/01/16 09:25:24;;;;;;;46.73;17.60;;;;;;;0.84;81.13;99532.95;1730415;83;21031;-38
2022/01/16 09:27:51;;;;;;;36.53;15.78;;;;;;;0.60;81.48;99527.59;1730400;83;20976;-38
2022/01/16 09:30:18;;;;;;;35.88;15.75;;;;;;;0.80;81.42;99524.78;1730496;83;20991;-38
2022/01/16 09:32:44;;;;;;;37.40;16.60;;;;;;;0.74;81.65;99520.53;1730800;83;21472;-39
2022/01/16 09:35:11;;;;;;;38.35;17.32;;;;;;;0.82;81.56;99525.61;1730462;82;21012;-39
2022/01/16 09:37:38;;;;;;;41.80;16.75;;;;;;;0.88;81.44;99520.37;1730569;83;20999;-40
2022/01/16 09:40:07;;;;;;;36.98;17.27;;;;;;;0.94;81.39;99522.88;1730449;82;21007;-38
2022/01/16 09:42:34;;;;;;;38.10;16.60;;;;;;;1.00;81.29;99510.29;1730506;82;21044;-40
2022/01/16 09:45:00;;;;;;;;;;;;;;;1.04;81.02;99513.28;1735132;83;21032;-39
2022/01/16 09:47:26;;;;;;;38.08;15.90;;;;;;;1.00;80.69;99512.87;1732613;83;20132;-39
2022/01/16 09:49:52;;;;;;;34.67;14.78;;;;;;;1.18;80.61;99504.86;1732815;82;21035;-39
2022/01/16 09:52:19;;;;;;;40.10;15.05;;;;;;;1.18;80.61;99504.86;1732523;83;21008;-38
2022/01/16 09:54:45;;;;;;;34.23;15.35;;;;;;;1.13;80.20;99505.39;1732947;82;21639;-39
2022/01/16 09:57:12;;;;;;;33.75;15.15;;;;;;;1.18;80.03;99507.45;1732412;83;21515;-40
2022/01/16 09:59:38;;;;;;;30.00;14.47;;;;;;;1.21;79.58;99500.09;1732654;82;21012;-40
2022/01/16 10:02:06;;;;;;;33.25;15.23;;;;;;;1.27;79.50;99494.37;1732851;83;21000;-39
2022/01/16 10:04:36;;;;;;;41.85;17.10;;;;;;;1.27;79.57;99487.89;1732787;83;21505;-40
2022/01/16 10:07:10;;;;;;;34.23;17.17;;;;;;;1.35;79.48;99489.09;1732538;83;21035;-39
2022/01/16 10:09:39;;;;;;;50.43;17.82;;;;;;;1.39;79.22;99484.28;1731735;82;20968;-41
2022/01/16 10:12:18;;;;;;;44.23;17.87;;;;;;;1.46;79.40;99475.54;1687502;84;21496;-38
2022/01/16 10:14:45;;;;;;;42.53;18.45;;;;;;;1.53;79.54;99481.05;1728087;83;21421;-39
2022/01/16 10:17:11;;;;;;;40.48;18.45;;;;;;;1.56;79.03;99474.09;1732961;82;21510;-40
2022/01/16 10:19:38;;;;;;;42.83;17.35;;;;;;;1.49;78.88;99475.50;1732672;83;20996;-39
2022/01/16 10:22:08;;;;;;;41.13;19.17;;;;;;;1.44;78.54;99472.12;1733020;82;21043;-40
2022/01/16 10:24:35;;;;;;;50.25;18.82;;;;;;;1.47;78.82;99469.45;1686987;84;21127;-39
2022/01/16 10:27:17;;;;;;;46.68;20.00;;;;;;;1.57;79.24;99468.05;1732877;83;21012;-39
2022/01/16 10:29:52;;;;;;;47.33;18.67;;;;;;;1.48;78.57;99466.00;1732805;83;21058;-40
2022/01/16 10:32:28;;;;;;;46.05;18.07;;;;;;;1.61;78.84;99469.70;1732483;82;21011;-39
2022/01/16 10:35:15;;;;;;;43.25;19.92;;;;;;;1.66;78.55;99474.38;1732793;83;20965;-40
2022/01/16 10:37:45;;;;;;;49.25;19.82;;;;;;;1.47;78.07;99472.05;1732822;82;21516;-40
2022/01/16 10:40:22;;;;;;;44.15;19.35;;;;;;;1.63;78.55;99464.05;1732845;83;20991;-38
2022/01/16 10:42:53;;;;;;;;;;;;;;;1.50;78.44;99462.94;1734733;83;21043;-39
2022/01/16 10:45:25;;;;;;;46.80;20.02;;;;;;;1.49;78.18;99453.89;1732603;83;20120;-39
2022/01/16 10:47:55;;;;;;;52.73;20.37;;;;;;;1.60;78.38;99456.31;1732796;82;21012;-39
2022/01/16 10:50:28;;;;;;;50.75;21.65;;;;;;;1.57;78.20;99448.61;1732792;83;20999;-39
2022/01/16 10:53:16;;;;;;;50.80;20.82;;;;;;;1.65;78.35;99448.02;1712356;83;21039;-39
2022/01/16 10:55:54;;;;;;;51.05;21.85;;;;;;;1.69;78.51;99440.19;1732781;83;21454;-39
2022/01/16 10:58:41;;;;;;;54.25;23.07;;;;;;;1.70;78.22;99424.18;1731965;82;20995;-39
2022/01/16 11:01:13;;;;;;;63.30;26.00;;;;;;;1.72;77.91;99425.00;1732887;83;21000;-38
2022/01/16 11:03:47;;;;;;;47.90;23.27;;;;;;;1.69;77.70;99431.53;1732634;82;20989;-39
2022/01/16 11:06:16;;;;;;;54.83;23.35;;;;;;;1.65;77.69;99422.10;1732814;82;21007;-38
2022/01/16 11:08:59;;;;;;;61.42;24.30;;;;;;;1.72;77.88;99410.75;1732636;82;20968;-39
2022/01/16 11:11:26;;;;;;;55.00;22.85;;;;;;;1.82;78.04;99411.02;1732797;82;21000;-39
2022/01/16 11:13:54;;;;;;;49.48;24.67;;;;;;;1.87;77.59;99404.01;1732901;82;21004;-38
2022/01/16 11:16:22;;;;;;;48.87;23.62;;;;;;;1.84;77.28;99395.43;1732696;83;21556;-39
2022/01/16 11:18:50;;;;;;;58.87;22.77;;;;;;;1.88;77.32;99392.73;1732833;83;20999;-40
2022/01/16 11:21:30;;;;;;;50.98;21.12;;;;;;;1.87;76.86;99389.75;1732508;83;21012;-40
2022/01/16 11:26:16;;;;;;;53.23;22.77;;;;;;;1.90;77.20;99387.52;1732608;83;21346;-40
2022/01/16 11:28:42;;;;;;;56.55;21.85;;;;;;;1.85;76.74;99388.89;1732730;83;21007;-39
2022/01/16 11:31:11;;;;;;;50.58;21.02;;;;;;;1.94;77.32;99380.55;1732593;83;21051;-40
2022/01/16 11:33:40;;;;;;;56.18;21.57;;;;;;;1.96;77.32;99379.62;1732729;82;21055;-39
2022/01/16 11:36:14;;;;;;;47.03;20.88;;;;;;;1.98;76.88;99375.70;1732407;83;21054;-40
2022/01/16 11:38:51;;;;;;;50.45;22.15;;;;;;;2.02;76.64;99381.23;1732675;82;21008;-39
2022/01/16 11:41:25;;;;;;;53.73;20.80;;;;;;;2.03;76.81;99368.70;1732640;82;20956;-40
2022/01/16 11:43:52;;;;;;;47.93;22.50;;;;;;;2.00;76.75;99370.92;1732127;83;21152;-39
2022/01/16 11:46:22;;;;;;;54.20;22.32;;;;;;;1.96;76.60;99368.40;1732516;83;21004;-39
2022/01/16 11:49:04;;;;;;;56.08;22.27;;;;;;;1.92;76.54;99363.26;1732705;82;21007;-39
2022/01/16 11:51:39;;;;;;;52.98;23.27;;;;;;;1.94;76.53;99364.98;1732708;82;21011;-39
2022/01/16 11:54:30;;;;;;;51.68;22.55;;;;;;;1.86;76.60;99365.98;1732850;82;21044;-38
2022/01/16 11:57:00;;;;;;;57.53;23.55;;;;;;;1.87;76.65;99366.83;1732487;83;21007;-39
2022/01/16 11:59:39;;;;;;;52.60;23.40;;;;;;;1.97;76.89;99359.75;1732562;83;20972;-39
2022/01/16 12:02:15;;;;;;;58.23;25.20;;;;;;;1.98;76.92;99351.91;1732906;83;21039;-38
2022/01/16 12:04:48;;;;;;;57.73;24.20;;;;;;;2.00;76.85;99349.30;1687462;84;21524;-38
2022/01/16 12:07:23;;;;;;;50.25;22.62;;;;;;;2.06;76.71;99347.89;1732981;83;21055;-38
2022/01/16 12:09:59;;;;;;;56.53;25.05;;;;;;;2.01;76.70;99347.13;1732915;83;21489;-39
2022/01/16 12:12:31;;;;;;;55.00;24.05;;;;;;;2.13;77.02;99346.89;1732815;82;21552;-40
2022/01/16 12:15:10;;;;;;;59.60;24.75;;;;;;;2.10;76.43;99333.52;1687856;85;21038;-40
2022/01/16 12:17:44;;;;;;;55.33;24.63;;;;;;;2.17;76.28;99325.63;1732696;82;21065;-39